Tiempo atmosférico en la estación meteorológica de La Pobla de Benifassà-Fredes, Castelló/Castellón (1174 m.)



Fecha
DESCASC
Temp. máxima en grados centígrados (hora)
DESCASC
Temp. mínima en grados centígrados (hora)
DESCASC
Temp. media en grados centígrados
DESCASC
Racha de viento máxima en m/sg (hora)
DESCASC
Velocidad máxima media en intervalos de 10 minutos(hora)
DESCASC
Precipitaciones diarias en mm
DESCASC
Precipitaciones de 00:00 a 06:00 en mm
DESCASC
Precipitaciones de 06:00 a 12:00 en mm
DESCASC
Precipitaciones de 12:00 a 18:00 en mm
DESCASC
Precipitaciones de 18:00 a 24:00 en mm
DESCASC
23-06-2019 25.6 (12:50) 13.9 (07:00) 19.8 9.72 (17:20) 4.44 (15:10) 0 0 0 0 0
22-06-2019 22.2 (15:30) 9.9 (05:10) 16.1 8.61 (01:00) 5.56 (01:00) 0.2 0 0.2 0 0
21-06-2019 20.5 (14:50) 11 (06:20) 15.8 9.72 (23:20) 6.39 (23:20) 0.8 0 0 0 0.8
20-06-2019 21.9 (11:20) 13.3 (00:00) 17.6 10.83 (16:20) 6.11 (07:00) 0 0 0 0 0
19-06-2019 24.8 (15:30) 15.1 (00:00) 19.9 9.72 (08:40) 5.56 (08:40) 0 0 0 0 0
18-06-2019 24.1 (13:40) 13.1 (00:00) 18.6 10 (17:20) 5.56 (18:50) 0 0 0 0 0
17-06-2019 23.9 (13:40) 12 (00:00) 17.9 7.78 (17:50) 4.17 (15:40) 0 0 0 0 0
16-06-2019 20.4 (15:20) 9.3 (00:00) 14.8 9.17 (14:00) 4.44 (14:20) 0 0 0 0 0
15-06-2019 21.3 (14:40) 8.9 (00:00) 15.1 13.33 (06:30) 8.89 (06:30) 0 0 0 0 0
14-06-2019 21.4 (16:20) 9.3 (00:00) 15.3 10.83 (09:40) 6.39 (09:40) 0.2 0 0 0.2 0
13-06-2019 15.6 (13:40) 5.4 (00:00) 10.5 9.72 (15:40) 5 (15:40) 0 0 0 0 0
12-06-2019 15.4 (15:30) 3.6 (00:00) 9.5 14.17 (01:30) 7.78 (00:50) 0 0 0 0 0
11-06-2019 10.5 (18:50) 5.8 (00:00) 8.2 16.39 (19:00) 10 (17:30) 0 0 0 0 0
10-06-2019 19.7 (15:50) 7.8 (00:00) 13.8 15.28 (03:40) 9.72 (04:50) 0 0 0 0 0
09-06-2019 21 (15:50) 9.8 (00:00) 15.4 7.5 (23:59) 3.89 (16:20) 0 0 0 0 0
08-06-2019 15.9 (12:40) 8.8 (00:00) 12.3 12.78 (14:20) 7.22 (15:30) 0 0 0 0 0
07-06-2019 17 (12:50) 8 (00:00) 12.5 9.17 (11:40) 5.28 (12:20) 0 0 0 0 0
06-06-2019 15.5 (17:20) 6.4 (00:00) 11 12.78 (18:20) 6.39 (15:20) 0 0 0 0 0
05-06-2019 15 (11:20) 7.7 (00:00) 11.3 21.67 (16:00) 12.78 (16:00) 0 0 0 0 0
04-06-2019 21.2 (14:50) 12.3 (00:00) 16.8 8.61 (13:10) 4.44 (15:20) 0 0 0 0 0
03-06-2019 21.9 (12:20) 10.8 (00:00) 16.3 7.22 (15:00) 3.61 (15:10) 0.4 0 0 0.4 0
02-06-2019 21.9 (15:00) 10.8 (00:00) 16.3 8.33 (14:30) 4.17 (13:20) 0 0 0 0 0
01-06-2019 21.1 (13:40) 10.5 (00:00) 15.8 9.17 (15:40) 4.44 (15:20) 0 0 0 0 0
31-05-2019 19.5 (13:30) 8.9 (00:00) 14.2 9.44 (16:20) 4.72 (18:00) 0 0 0 0 0
30-05-2019 18.7 (14:30) 6.2 (00:00) 12.5 10 (05:50) 6.94 (00:40) 0 0 0 0 0
29-05-2019 15.1 (17:40) 4.2 (00:00) 9.7 25.56 (06:30) 15.28 (06:10) 0 0 0 0 0
28-05-2019 14.7 (15:40) 4.7 (00:00) 9.7 23.89 (12:20) 14.72 (12:10) 0 0 0 0 0

Gráficas

Temp. máximas Temp. mínimas Temp. medias Precipitaciones Rachas de viento máximas Velocidades máximas media en intervalos de 10 minutos

Datos horarios

Fecha y hora oficial Temperatura (ºC) Velocidad del viento (km/h) Dirección del viento Racha (km/h) Dirección de racha Precipitación (mm) Presión (hPa) Tendencia (hPa) Humedad (%)
2019-06-26 23:00:00 -- -- -- -- -- -- -- -- --
2019-06-26 22:00:00 -- -- -- -- -- -- -- -- --
2019-06-26 21:00:00 -- -- -- -- -- -- -- -- --
2019-06-26 20:00:00 -- -- -- -- -- -- -- -- --
2019-06-26 19:00:00 -- -- -- -- -- -- -- -- --
2019-06-26 18:00:00 -- -- -- -- -- -- -- -- --
2019-06-26 17:00:00 -- -- -- -- -- -- -- -- --
2019-06-26 16:00:00 -- -- -- -- -- -- -- -- --
2019-06-26 15:00:00 -- -- -- -- -- -- -- -- --
2019-06-26 14:00:00 -- -- -- -- -- -- -- -- --
2019-06-26 13:00:00 -- -- -- -- -- -- -- -- --
2019-06-26 12:00:00 -- -- -- -- -- -- -- -- --
2019-06-26 11:00:00 -- -- -- -- -- -- -- -- --
2019-06-26 10:00:00 -- -- -- -- -- -- -- -- --
2019-06-26 09:00:00 18.9 9 Este 17 Este 0 -- -- 68
2019-06-26 08:00:00 18.3 8 Este 18 Este 0 -- -- 67
2019-06-26 07:00:00 18.2 10 Este 19 Este 0 -- -- 58
2019-06-26 06:00:00 19 7 Este 19 Nordeste 0 -- -- 49
2019-06-26 05:00:00 16.8 6 Este 18 Nordeste 0 -- -- 54
2019-06-26 04:00:00 15.9 5 Este 14 Este 0 -- -- 63
2019-06-26 03:00:00 17.1 5 Sudeste 21 Sudeste 0 -- -- 61
2019-06-26 02:00:00 16.1 6 Sudeste 17 Este 0 -- -- 69
2019-06-26 01:00:00 16.3 5 Este 22 Este 0 -- -- 66
2019-06-26 00:00:00 17.7 14 Este 23 Este 0 -- -- 61
2019-06-25 23:00:00 17.7 10 Este 18 Este 0 -- -- 66
2019-06-25 22:00:00 17.6 8 Este 19 Este 0 -- -- 69
2019-06-25 21:00:00 18.1 11 Este 28 Este 0 -- -- 67
2019-06-25 20:00:00 19.1 14 Este 30 Este 0 -- -- 65
2019-06-25 19:00:00 20.7 15 Este 28 Sudeste 0 -- -- 61
2019-06-25 18:00:00 22.6 14 Este 27 Este 0 -- -- 54
2019-06-25 17:00:00 24 14 Este 27 Este 0 -- -- 52
2019-06-25 16:00:00 23.5 11 Este 26 Este 0 -- -- 60
2019-06-25 15:00:00 22.9 12 Este 25 Este 0 -- -- 64
2019-06-25 14:00:00 23.2 10 Este 23 Sudeste 0 -- -- 64
2019-06-25 13:00:00 22.5 8 Este 16 Este 0 -- -- 67
2019-06-25 12:00:00 21.4 9 Este 19 Este 0 -- -- 69
2019-06-25 11:00:00 21.2 6 Este 14 Este 0 -- -- 67
2019-06-25 10:00:00 19.6 4 Sudeste 9 Sudeste 0 -- -- 71
2019-06-25 09:00:00 17.8 4 Este 10 Sudeste 0 -- -- 77
2019-06-25 08:00:00 17 2 Oeste 8 Sudeste 0 -- -- 70
2019-06-25 07:00:00 15.3 0 Calma 6 Sudeste 0 -- -- 69
2019-06-25 06:00:00 17 2 Sudeste 6 Este 0 -- -- 61
2019-06-25 05:00:00 17.4 4 Sudeste 8 Sudeste 0 -- -- 60
2019-06-25 04:00:00 15.8 4 Este 6 Este 0 -- -- 59
2019-06-25 03:00:00 14.7 5 Este 9 Este 0 -- -- 71
2019-06-25 02:00:00 15.7 7 Este 14 Este 0 -- -- 79
2019-06-25 01:00:00 15.4 7 Este 13 Este 0 -- -- 75
2019-06-25 00:00:00 15.6 9 Este 17 Este 0 -- -- 69
2019-06-24 23:00:00 15.9 10 Este 21 Este 0 -- -- 66
2019-06-24 22:00:00 15.8 7 Este 20 Este 0 -- -- 69
2019-06-24 21:00:00 16.6 6 Este 14 Este 0 -- -- 64
2019-06-24 20:00:00 18.5 8 Este 20 Este 0 -- -- 55
2019-06-24 19:00:00 20.4 11 Este 21 Este 0 -- -- 49
2019-06-24 18:00:00 21.1 10 Este 24 Este 0 -- -- 46
2019-06-24 17:00:00 21.3 12 Este 30 Sudeste 0 -- -- 47
2019-06-24 16:00:00 22.3 17 Este 32 Este 0 -- -- 40
2019-06-24 15:00:00 22.7 17 Este 34 Este 0 -- -- 37
2019-06-24 14:00:00 22.9 17 Este 33 Sudeste 0 -- -- 40
2019-06-24 13:00:00 22.8 19 Este 35 Este 0 -- -- 32
2019-06-24 12:00:00 21.5 20 Este 37 Este 0 -- -- 39
2019-06-24 11:00:00 21.4 18 Este 37 Este 0 -- -- 35
2019-06-24 10:00:00 20.3 15 Este 33 Este 0 -- -- 45
2019-06-24 09:00:00 19.9 13 Este 23 Este 0 -- -- 42
2019-06-24 08:00:00 18 12 Este 20 Este 0 -- -- 47
2019-06-24 07:00:00 14.4 7 Este 15 Este 0 -- -- 57
2019-06-24 06:00:00 14.6 8 Sudeste 20 Sudeste 0 -- -- 55
2019-06-24 05:00:00 15.8 9 Sudeste 26 Sudeste 0 -- -- 56
2019-06-24 04:00:00 15.7 10 Sudeste 18 Sudeste 0 -- -- 59
2019-06-24 03:00:00 15.8 9 Sudeste 24 Sudeste 0 -- -- 48
2019-06-24 02:00:00 15.3 8 Sudeste 21 Este 0 -- -- 47
2019-06-24 01:00:00 15.4 8 Sudeste 19 Sur 0 -- -- 52
2019-06-24 00:00:00 15.1 5 Sudeste 12 Este 0 -- -- 61
2019-06-23 23:00:00 15.8 3 Este 8 Sur 0 -- -- 55
2019-06-23 22:00:00 17.6 4 Sudeste 15 Sudeste 0 -- -- 49
2019-06-23 21:00:00 19 3 Sudeste 15 Sudeste 0 -- -- 46
2019-06-23 20:00:00 20.2 6 Sudeste 28 Sudeste 0 -- -- 46
2019-06-23 19:00:00 21.4 13 Este 28 Este 0 -- -- 51
2019-06-23 18:00:00 23.4 12 Sudeste 35 Este 0 -- -- 45
2019-06-23 17:00:00 23.9 10 Este 34 Este 0 -- -- 48
2019-06-23 16:00:00 24.9 11 Sudeste 34 Este 0 -- -- 48
2019-06-23 15:00:00 24.9 10 Este 31 Este 0 -- -- 52
2019-06-23 14:00:00 24.7 15 Este 31 Este 0 -- -- 53
2019-06-23 13:00:00 25.6 13 Este 30 Este 0 -- -- 45
2019-06-23 12:00:00 25 9 Sudeste 25 Este 0 -- -- 40
2019-06-23 11:00:00 23.4 10 Este 24 Este 0 -- -- 40
2019-06-23 10:00:00 22.2 9 Este 20 Este 0 -- -- 42
2019-06-23 09:00:00 20 6 Sudeste 16 Este 0 -- -- 49
2019-06-23 08:00:00 17.3 5 Sudeste 15 Sudeste 0 -- -- 57
2019-06-23 07:00:00 13.9 3 Sudeste 13 Este 0 -- -- 73
2019-06-23 06:00:00 14.7 0 Calma 6 Este 0 -- -- 68
2019-06-23 05:00:00 14.7 0 Calma 7 Sudeste 0 -- -- 73
2019-06-23 04:00:00 15.4 0 Calma 9 Sudeste 0 -- -- 71
2019-06-23 03:00:00 15.8 4 Sudeste 19 Sudeste 0 -- -- 72
2019-06-23 02:00:00 15 5 Sudeste 18 Sudeste 0 -- -- 79
2019-06-23 01:00:00 15.5 5 Sudeste 12 Sudeste 0 -- -- 78
2019-06-23 00:00:00 15.7 5 Sur 14 Sur 0 -- -- 76
2019-06-22 23:00:00 14.3 3 Sudeste 10 Sur 0 -- -- 86
2019-06-22 22:00:00 14.8 4 Este 15 Este 0 -- -- 82
2019-06-22 21:00:00 15.8 9 Este 19 Este 0 -- -- 77
2019-06-22 20:00:00 17.5 11 Este 26 Nordeste 0 -- -- 71
2019-06-22 19:00:00 18.3 14 Este 27 Este 0 -- -- 70
2019-06-22 18:00:00 19.9 13 Este 29 Este 0 -- -- 65
2019-06-22 17:00:00 20.5 15 Este 31 Este 0 -- -- 65
2019-06-22 16:00:00 21.3 16 Este 31 Este 0 -- -- 60
2019-06-22 15:00:00 21.4 11 Este 26 Este 0 -- -- 61
2019-06-22 14:00:00 21.6 9 Sudeste 21 Este 0 -- -- 58
2019-06-22 13:00:00 20.5 8 Sudeste 21 Sudeste 0 -- -- 57
2019-06-22 12:00:00 19.8 8 Este 22 Este 0 -- -- 56
2019-06-22 11:00:00 19.5 9 Este 17 Este 0 -- -- 56
2019-06-22 10:00:00 18.3 5 Este 13 Este 0 -- -- 56
2019-06-22 09:00:00 16.8 5 Este 11 Este 0 -- -- 57
2019-06-22 08:00:00 13.8 3 Oeste 12 Oeste 0.2 -- -- 61
2019-06-22 07:00:00 10.7 9 Oeste 14 Oeste 0 -- -- 65
2019-06-22 06:00:00 10 10 Oeste 17 Oeste 0 -- -- 70
2019-06-22 05:00:00 10 12 Oeste 22 Oeste 0 -- -- 75
2019-06-22 04:00:00 10.5 15 Oeste 27 Oeste 0 -- -- 74
2019-06-22 03:00:00 10.5 17 Oeste 25 Oeste 0 -- -- 76
2019-06-22 02:00:00 11.2 18 Oeste 30 Oeste 0 -- -- 77
2019-06-22 01:00:00 12.1 20 Oeste 31 Oeste 0 -- -- 74
2019-06-22 00:00:00 12.9 19 Oeste 35 Oeste 0 -- -- 73
2019-06-21 23:00:00 14 17 Oeste 27 Oeste 0 -- -- 75
2019-06-21 22:00:00 14.6 10 Oeste 19 Oeste 0 -- -- 77
2019-06-21 21:00:00 15.9 12 Noroeste 26 Oeste 0 -- -- 73
2019-06-21 20:00:00 16.6 9 Noroeste 20 Noroeste 0 -- -- 76
2019-06-21 19:00:00 15.8 4 Nordeste 18 Noroeste 0.8 -- -- 86
2019-06-21 18:00:00 16.4 7 Oeste 17 Noroeste 0 -- -- 71
2019-06-21 17:00:00 16.7 10 Noroeste 26 Noroeste 0 -- -- 70
2019-06-21 16:00:00 17.6 13 Noroeste 24 Noroeste 0 -- -- 67
2019-06-21 15:00:00 19.9 12 Noroeste 25 Sudoeste 0 -- -- 62
2019-06-21 14:00:00 19.4 9 Oeste 20 Noroeste 0 -- -- 61
2019-06-21 13:00:00 18.1 12 Noroeste 22 Oeste 0 -- -- 63
2019-06-21 12:00:00 18 9 Oeste 18 Oeste 0 -- -- 63
2019-06-21 11:00:00 16.6 9 Oeste 17 Oeste 0 -- -- 70
2019-06-21 10:00:00 14.8 9 Oeste 23 Oeste 0 -- -- 78
2019-06-21 09:00:00 13.1 13 Noroeste 22 Oeste 0 -- -- 83
2019-06-21 08:00:00 11.9 12 Oeste 18 Oeste 0 -- -- 89
2019-06-21 07:00:00 11.1 10 Oeste 18 Oeste 0 -- -- 92
2019-06-21 06:00:00 11.1 12 Oeste 15 Oeste 0 -- -- 93
2019-06-21 05:00:00 11.4 7 Oeste 11 Oeste 0 -- -- 91
2019-06-21 04:00:00 11.8 6 Oeste 19 Oeste 0 -- -- 89
2019-06-21 03:00:00 12.5 13 Oeste 21 Oeste 0 -- -- 88
2019-06-21 02:00:00 13.4 8 Oeste 18 Oeste 0 -- -- 83
2019-06-21 01:00:00 13.2 8 Oeste 10 Oeste 0 -- -- 56
2019-06-21 00:00:00 13.6 3 Norte 5 Noroeste 0 -- -- 59
2019-06-20 23:00:00 13.4 0 Calma 4 Noroeste 0 -- -- 74
2019-06-20 22:00:00 14 2 Nordeste 5 Este 0 -- -- 77
2019-06-20 21:00:00 15.4 3 Este 6 Este 0 -- -- 75
2019-06-20 20:00:00 16.6 3 Sudeste 18 Este 0 -- -- 66
2019-06-20 19:00:00 16 9 Este 29 Este 0 -- -- 73
2019-06-20 18:00:00 17.7 18 Este 34 Este 0 -- -- 69
2019-06-20 17:00:00 17.2 15 Este 39 Este 0 -- -- 69
2019-06-20 16:00:00 17.4 17 Este 32 Este 0 -- -- 70
2019-06-20 15:00:00 18.5 21 Este 36 Este 0 -- -- 68
2019-06-20 14:00:00 19.5 19 Este 35 Este 0 -- -- 60
2019-06-20 13:00:00 19.1 14 Este 31 Sudeste 0 -- -- 70
2019-06-20 12:00:00 21.6 11 Este 26 Este 0 -- -- 60
2019-06-20 11:00:00 21.7 9 Este 21 Sudeste 0 -- -- 59
2019-06-20 10:00:00 20.3 5 Oeste 24 Noroeste 0 -- -- 56
2019-06-20 09:00:00 17.9 14 Oeste 25 Noroeste 0 -- -- 63
2019-06-20 08:00:00 16.1 15 Oeste 28 Oeste 0 -- -- 66
2019-06-20 07:00:00 15 22 Oeste 32 Oeste 0 -- -- 66
2019-06-20 06:00:00 15.1 18 Oeste 30 Noroeste 0 -- -- 63
2019-06-20 05:00:00 15.2 17 Oeste 25 Oeste 0 -- -- 62
2019-06-20 04:00:00 15.9 13 Oeste 26 Oeste 0 -- -- 60
2019-06-20 03:00:00 15.8 14 Oeste 21 Oeste 0 -- -- 56
2019-06-20 02:00:00 14.6 4 Sudoeste 9 Sudoeste 0 -- -- 56
2019-06-20 01:00:00 16.6 4 Sur 16 Sudeste 0 -- -- 48
2019-06-20 00:00:00 15.8 2 Sur 10 Sudeste 0 -- -- 47
2019-06-19 23:00:00 15.2 3 Sudeste 10 Sudeste 0 -- -- 58
2019-06-19 22:00:00 16.6 2 Este 14 Nordeste 0 -- -- 56
2019-06-19 21:00:00 18.4 6 Este 15 Este 0 -- -- 51
2019-06-19 20:00:00 20 6 Sudeste 21 Este 0 -- -- 44
2019-06-19 19:00:00 21.2 9 Este 29 Este 0 -- -- 44
2019-06-19 18:00:00 22.3 17 Este 31 Este 0 -- -- 42
2019-06-19 17:00:00 23.5 13 Este 32 Este 0 -- -- 43
2019-06-19 16:00:00 23.6 17 Este 34 Nordeste 0 -- -- 44
2019-06-19 15:00:00 24.4 12 Este 32 Este 0 -- -- 44
2019-06-19 14:00:00 24.5 14 Este 31 Este 0 -- -- 46
2019-06-19 13:00:00 23.3 11 Este 23 Este 0 -- -- 45
2019-06-19 12:00:00 24.1 6 Oeste 24 Oeste 0 -- -- 46
2019-06-19 11:00:00 22.4 14 Noroeste 33 Noroeste 0 -- -- 39
2019-06-19 10:00:00 21.2 19 Noroeste 34 Oeste 0 -- -- 43
2019-06-19 09:00:00 20 19 Oeste 35 Oeste 0 -- -- 45
2019-06-19 08:00:00 17.7 19 Oeste 33 Oeste 0 -- -- 46
2019-06-19 07:00:00 16.7 18 Oeste 30 Noroeste 0 -- -- 42
2019-06-19 06:00:00 17 17 Oeste 27 Oeste 0 -- -- 37
2019-06-19 05:00:00 17.4 14 Oeste 23 Oeste 0 -- -- 35
2019-06-19 04:00:00 16.4 11 Oeste 18 Oeste 0 -- -- 42
2019-06-19 03:00:00 17.1 5 Noroeste 19 Sur 0 -- -- 42
2019-06-19 02:00:00 18.9 11 Sur 24 Sur 0 -- -- 37
2019-06-19 01:00:00 18.9 14 Sur 25 Sudoeste 0 -- -- 32
2019-06-19 00:00:00 18 13 Sur 21 Sur 0 -- -- 30
2019-06-18 23:00:00 16.5 6 Sudeste 19 Sudeste 0 -- -- 36
2019-06-18 22:00:00 14.9 4 Sudeste 13 Sudeste 0 -- -- 44
2019-06-18 21:00:00 17 9 Este 24 Este 0 -- -- 40
2019-06-18 20:00:00 18.1 14 Este 32 Este 0 -- -- 37
2019-06-18 19:00:00 19.2 18 Este 36 Este 0 -- -- 37
2019-06-18 18:00:00 20.9 18 Este 36 Este 0 -- -- 38
2019-06-18 17:00:00 21.4 18 Este 34 Este 0 -- -- 48
2019-06-18 16:00:00 22 17 Este 35 Este 0 -- -- 62
2019-06-18 15:00:00 22.7 19 Este 35 Este 0 -- -- 59
2019-06-18 14:00:00 23.6 12 Este 26 Este 0 -- -- 50
2019-06-18 13:00:00 23.4 13 Este 29 Este 0 -- -- 46
2019-06-18 12:00:00 23.1 12 Este 26 Este 0 -- -- 44
2019-06-18 11:00:00 22.6 11 Este 25 Sudeste 0 -- -- 38
2019-06-18 10:00:00 22.3 10 Sudeste 18 Sudeste 0 -- -- 35
2019-06-18 09:00:00 20.6 5 Este 18 Este 0 -- -- 38
2019-06-18 08:00:00 17.7 3 Este 9 Sudeste 0 -- -- 44
2019-06-18 07:00:00 14.7 3 Sudeste 15 Sudeste 0 -- -- 41
2019-06-18 06:00:00 15 3 Sudeste 15 Sudeste 0 -- -- 40
2019-06-18 05:00:00 15.5 7 Sudeste 21 Sudeste 0 -- -- 36
2019-06-18 04:00:00 14 4 Sudeste 14 Sudeste 0 -- -- 41
2019-06-18 03:00:00 15 4 Sudeste 22 Sur 0 -- -- 39
2019-06-18 02:00:00 15.2 9 Sur 20 Sudoeste 0 -- -- 38
2019-06-18 01:00:00 13.4 4 Sudeste 20 Sudeste 0 -- -- 47
2019-06-18 00:00:00 14 5 Sudeste 14 Sudeste 0 -- -- 49
2019-06-17 23:00:00 13.7 5 Sudeste 13 Sudeste 0 -- -- 62
2019-06-17 22:00:00 14.3 4 Este 13 Este 0 -- -- 64
2019-06-17 21:00:00 16 6 Este 19 Este 0 -- -- 60
2019-06-17 20:00:00 17.5 9 Este 24 Este 0 -- -- 57
2019-06-17 19:00:00 19.3 11 Este 23 Este 0 -- -- 56
2019-06-17 18:00:00 20.4 12 Este 28 Este 0 -- -- 62
2019-06-17 17:00:00 20.2 11 Este 26 Este 0 -- -- 65
2019-06-17 16:00:00 22.4 14 Este 27 Este 0 -- -- 56
2019-06-17 15:00:00 22.7 11 Este 26 Este 0 -- -- 56
2019-06-17 14:00:00 23.8 12 Este 26 Sudeste 0 -- -- 53
2019-06-17 13:00:00 23.3 12 Este 22 Nordeste 0 -- -- 48
2019-06-17 12:00:00 23 9 Este 18 Este 0 -- -- 51
2019-06-17 11:00:00 22.1 8 Este 13 Este 0 -- -- 47
2019-06-17 10:00:00 21.7 3 Este 10 Sur 0 -- -- 43
2019-06-17 09:00:00 20.2 3 Oeste 12 Oeste 0 -- -- 45
2019-06-17 08:00:00 17.6 8 Oeste 13 Oeste 0 -- -- 54
2019-06-17 07:00:00 14.4 8 Noroeste 10 Oeste 0 -- -- 58
2019-06-17 06:00:00 14.5 0 Calma 11 Oeste 0 -- -- 58
2019-06-17 05:00:00 13.3 5 Oeste 9 Oeste 0 -- -- 62
2019-06-17 04:00:00 14.3 7 Oeste 13 Oeste 0 -- -- 60
2019-06-17 03:00:00 14.4 2 Noroeste -- -- 0 -- -- 60
2019-06-17 02:00:00 13.8 7 Sudoeste 15 Sudoeste 0 -- -- 60
2019-06-17 01:00:00 12.3 3 Oeste 12 Sur 0 -- -- 69
2019-06-17 00:00:00 12 0 Calma 8 Sudeste 0 -- -- 79
2019-06-16 23:00:00 12.7 2 Este 7 Sudeste 0 -- -- 70
2019-06-16 22:00:00 14.9 5 Sudeste 17 Sur 0 -- -- 54
2019-06-16 21:00:00 14.5 4 Este 14 Este 0 -- -- 67
2019-06-16 20:00:00 15.6 9 Este 23 Este 0 -- -- 63
2019-06-16 19:00:00 16.6 12 Este 21 Este 0 -- -- 61
2019-06-16 18:00:00 17.8 10 Este 24 Este 0 -- -- 59
2019-06-16 17:00:00 18.6 11 Este 29 Este 0 -- -- 56
2019-06-16 16:00:00 20.4 12 Sudeste 29 Sudeste 0 -- -- 51
2019-06-16 15:00:00 19.9 12 Sudeste 31 Este 0 -- -- 53
2019-06-16 14:00:00 20.1 15 Este 33 Este -- -- -- 55
2019-06-16 13:00:00 18.9 13 Este 30 Este 0 -- -- 55
2019-06-16 12:00:00 18.7 12 Este 24 Este 0 -- -- 56
2019-06-16 11:00:00 17.4 12 Este 19 Este 0 -- -- 59
2019-06-16 10:00:00 16.7 9 Este 18 Este 0 -- -- 59
2019-06-16 09:00:00 16 4 Este 9 Este 0 -- -- 58
2019-06-16 08:00:00 13.6 2 Este 6 Nordeste 0 -- -- 55
2019-06-16 07:00:00 9.7 0 Calma 8 Sudoeste 0 -- -- 69
2019-06-16 06:00:00 9.8 8 Oeste 13 Oeste 0 -- -- 65
2019-06-16 05:00:00 9.8 9 Oeste 15 Oeste 0 -- -- 64
2019-06-16 04:00:00 10.7 11 Oeste 18 Oeste 0 -- -- 61
2019-06-16 03:00:00 10.9 14 Oeste 19 Oeste 0 -- -- 61
2019-06-16 02:00:00 10.4 8 Oeste 14 Oeste 0 -- -- 65
2019-06-16 01:00:00 11.2 0 Calma 9 Oeste 0 -- -- 64
2019-06-16 00:00:00 12 2 Sudeste 9 Sudeste 0 -- -- 62
2019-06-15 23:00:00 12.7 4 Nordeste 12 Este 0 -- -- 59
2019-06-15 22:00:00 13.5 2 Este 7 Sudeste 0 -- -- 57
2019-06-15 21:00:00 15.7 2 Sudeste 11 Este 0 -- -- 52
2019-06-15 20:00:00 17 5 Este 17 Nordeste 0 -- -- 50
2019-06-15 19:00:00 18.2 7 Sudeste 15 Este 0 -- -- 50
2019-06-15 18:00:00 18.9 5 Sudeste 21 Nordeste 0 -- -- 49
2019-06-15 17:00:00 19.1 8 Este 25 Este 0 -- -- 48
2019-06-15 16:00:00 20.1 10 Este 28 Este 0 -- -- 47
2019-06-15 15:00:00 20.7 5 Norte 30 Sur 0 -- -- 41
2019-06-15 14:00:00 20.5 8 Oeste 24 Noroeste 0 -- -- 36
2019-06-15 13:00:00 19.7 12 Oeste 23 Oeste 0 -- -- 38
2019-06-15 12:00:00 18.2 12 Noroeste 31 Oeste 0 -- -- 44
2019-06-15 11:00:00 16.3 18 Oeste 39 Noroeste 0 -- -- 48
2019-06-15 10:00:00 14 24 Oeste 44 Oeste 0 -- -- 57
2019-06-15 09:00:00 12.3 25 Noroeste 44 Noroeste 0 -- -- 61
2019-06-15 08:00:00 10 27 Oeste 48 Noroeste 0 -- -- 78
2019-06-15 07:00:00 8.9 28 Oeste 48 Noroeste 0 -- -- 84
2019-06-15 06:00:00 10 31 Noroeste 47 Noroeste 0 -- -- 72
2019-06-15 05:00:00 13 22 Oeste 32 Oeste 0 -- -- 42
2019-06-15 04:00:00 13.7 15 Noroeste 24 Noroeste 0 -- -- 42
2019-06-15 03:00:00 13.3 12 Oeste 21 Oeste 0 -- -- 45
2019-06-15 02:00:00 13.7 11 Oeste 21 Oeste 0 -- -- 47
2019-06-15 01:00:00 14.2 9 Oeste 16 Oeste 0 -- -- 49
2019-06-15 00:00:00 14.1 6 Oeste 17 Sur 0 -- -- 65
2019-06-14 23:00:00 15.1 10 Sur 19 Sudoeste 0 -- -- 64
2019-06-14 22:00:00 13.7 0 Calma 4 Nordeste 0 -- -- 76
2019-06-14 21:00:00 15.4 3 Este 19 Este 0 -- -- 68
2019-06-14 20:00:00 16.8 8 Este 21 Este 0 -- -- 64
2019-06-14 19:00:00 18.2 10 Este 24 Este 0 -- -- 59
2019-06-14 18:00:00 19.7 13 Este 24 Este 0 -- -- 55
2019-06-14 17:00:00 21 13 Este 27 Este 0 -- -- 53
2019-06-14 16:00:00 20.7 9 Este 23 Este 0 -- -- 50
2019-06-14 15:00:00 19.5 5 Este 14 Sudoeste 0 -- -- 54
2019-06-14 14:00:00 18 4 Nordeste 13 Este 0.2 -- -- 61
2019-06-14 13:00:00 17.1 10 Este 21 Este 0 -- -- 59
2019-06-14 12:00:00 18.1 4 Sur 15 Este 0 -- -- 57
2019-06-14 11:00:00 15.7 5 Este 17 Este 0 -- -- 61
2019-06-14 10:00:00 15 8 Sudeste 39 Oeste 0 -- -- 65
2019-06-14 09:00:00 14.7 5 Sur 19 Oeste 0 -- -- 69
2019-06-14 08:00:00 11.8 8 Noroeste 15 Oeste 0 -- -- 81
2019-06-14 07:00:00 11.3 0 Calma 9 Sudeste 0 -- -- 81
2019-06-14 06:00:00 11.8 4 Este 12 Norte 0 -- -- 75
2019-06-14 05:00:00 12 6 Sudoeste 12 Sudoeste 0 -- -- 65
2019-06-14 04:00:00 12.6 5 Oeste 10 Noroeste 0 -- -- 74
2019-06-14 03:00:00 11.7 0 Calma 11 Este 0 -- -- 68
2019-06-14 02:00:00 11.7 5 Este 15 Este 0 -- -- 58
2019-06-14 01:00:00 9.3 4 Este 18 Este 0 -- -- 53
2019-06-14 00:00:00 9.8 10 Este 19 Este 0 -- -- 48
2019-06-13 23:00:00 9.9 9 Este 18 Este 0 -- -- 89
2019-06-13 22:00:00 10.3 7 Este 13 Este 0 -- -- 90
2019-06-13 21:00:00 11 5 Este 18 Este 0 -- -- 84
2019-06-13 20:00:00 12.8 9 Este 21 Este 0 -- -- 84
2019-06-13 19:00:00 13.3 9 Este 21 Este 0 -- -- 82
2019-06-13 18:00:00 12.3 11 Este 23 Este 0 -- -- 90
2019-06-13 17:00:00 11.8 17 Este 30 Sudeste 0 -- -- 93
2019-06-13 16:00:00 11.7 13 Este 35 Este 0 -- -- 92
2019-06-13 15:00:00 13.1 13 Este 30 Este 0 -- -- 86
2019-06-13 14:00:00 14.4 14 Este 30 Este 0 -- -- 75
2019-06-13 13:00:00 14.8 14 Este 27 Este 0 -- -- 74
2019-06-13 12:00:00 13.1 14 Este 26 Este 0 -- -- 81
2019-06-13 11:00:00 11.9 9 Sudeste 26 Este 0 -- -- 87
2019-06-13 10:00:00 10.7 9 Este 20 Sudeste 0 -- -- 88
2019-06-13 09:00:00 11.5 9 Sudeste 21 Este 0 -- -- 83
2019-06-13 08:00:00 9.5 8 Este 20 Este 0 -- -- 89
2019-06-13 07:00:00 9.7 8 Sudeste 17 Sudeste 0 -- -- 87
2019-06-13 06:00:00 9.4 6 Sudeste 16 Sudeste 0 -- -- 80
2019-06-13 05:00:00 9.5 6 Sudeste 33 Sudeste 0 -- -- 79
2019-06-13 04:00:00 9.6 10 Sudeste 26 Sudeste 0 -- -- 73
2019-06-13 03:00:00 9 8 Sudeste 22 Este 0 -- -- 69
2019-06-13 02:00:00 7.4 7 Sudeste 18 Este 0 -- -- 56
2019-06-13 01:00:00 5.4 5 Sudeste 14 Sudeste 0 -- -- 67
2019-06-13 00:00:00 5.8 7 Sudeste 16 Este 0 -- -- 68
2019-06-12 23:00:00 7.1 8 Sudeste 17 Este 0 -- -- 74
2019-06-12 22:00:00 8 9 Este 22 Este 0 -- -- 79
2019-06-12 21:00:00 9.2 10 Este 28 Nordeste 0 -- -- 70
2019-06-12 20:00:00 10.3 18 Este 30 Este 0 -- -- 61
2019-06-12 19:00:00 11.9 14 Este 34 Este 0 -- -- 62
2019-06-12 18:00:00 13.2 19 Este 35 Sudeste 0 -- -- 58
2019-06-12 17:00:00 14.7 13 Este 28 Este 0 -- -- 58
2019-06-12 16:00:00 14.8 14 Este 31 Este 0 -- -- 59
2019-06-12 15:00:00 14.4 13 Este 34 Este 0 -- -- 59
2019-06-12 14:00:00 14.3 11 Este 31 Este 0 -- -- 51
2019-06-12 13:00:00 14.1 11 Este 24 Este 0 -- -- 44
2019-06-12 12:00:00 14.3 12 Este 26 Este 0 -- -- 45
2019-06-12 11:00:00 12.5 9 Este 20 Este 0 -- -- 45
2019-06-12 10:00:00 11 3 Sudoeste 15 Oeste 0 -- -- 52
2019-06-12 09:00:00 8.6 12 Oeste 29 Oeste 0 -- -- 55
2019-06-12 08:00:00 5.9 20 Oeste 40 Noroeste 0 -- -- 67
2019-06-12 07:00:00 4.2 24 Oeste 36 Oeste 0 -- -- 77
2019-06-12 06:00:00 3.7 23 Oeste 42 Oeste 0 -- -- 82
2019-06-12 05:00:00 3.9 25 Oeste 41 Oeste 0 -- -- 82
2019-06-12 04:00:00 4 24 Oeste 44 Oeste 0 -- -- 80
2019-06-12 03:00:00 4.5 26 Oeste 42 Oeste 0 -- -- 75
2019-06-12 02:00:00 4.9 16 Oeste 51 Noroeste 0 -- -- 76
2019-06-12 01:00:00 5.4 27 Noroeste 49 Noroeste 0 -- -- 73
2019-06-12 00:00:00 6.1 29 Oeste 52 Oeste 0 -- -- 71
2019-06-11 23:00:00 6.9 21 Noroeste 44 Noroeste 0 -- -- 67
2019-06-11 22:00:00 7.8 24 Oeste 50 Noroeste 0 -- -- 58
2019-06-11 21:00:00 9 21 Noroeste 47 Noroeste 0 -- -- 55
2019-06-11 20:00:00 10.1 25 Noroeste 54 Noroeste 0 -- -- 53
2019-06-11 19:00:00 10.1 29 Oeste 59 Oeste 0 -- -- 61
2019-06-11 18:00:00 8.9 30 Oeste 54 Oeste 0 -- -- 61
2019-06-11 17:00:00 6.2 28 Oeste 50 Oeste 0 -- -- 79
2019-06-11 16:00:00 6.1 35 Oeste 54 Oeste 0 -- -- 78
2019-06-11 15:00:00 6.2 32 Oeste 58 Oeste 0 -- -- 80
2019-06-11 14:00:00 7.1 29 Oeste 48 Oeste 0 -- -- 78
2019-06-11 13:00:00 6.1 26 Oeste 48 Oeste 0 -- -- 81
2019-06-11 12:00:00 5.8 26 Oeste 42 Oeste 0 -- -- 81
2019-06-11 11:00:00 6.3 23 Oeste 41 Oeste 0 -- -- 77
2019-06-11 10:00:00 6.2 19 Oeste 36 Oeste 0 -- -- 76
2019-06-11 09:00:00 6.1 19 Oeste 33 Oeste 0 -- -- 73
2019-06-11 08:00:00 6.3 22 Oeste 33 Oeste 0 -- -- 71
2019-06-11 07:00:00 6.8 17 Oeste 32 Oeste 0 -- -- 64
2019-06-11 06:00:00 7.4 20 Oeste 34 Oeste 0 -- -- 60
2019-06-11 05:00:00 7.6 20 Oeste 34 Oeste 0 -- -- 59
2019-06-11 04:00:00 7.3 15 Oeste 33 Oeste 0 -- -- 57
2019-06-11 03:00:00 7.8 19 Oeste 37 Oeste 0 -- -- 56
2019-06-11 02:00:00 8.5 24 Oeste 38 Oeste 0 -- -- 62
2019-06-11 01:00:00 9 21 Oeste 34 Oeste 0 -- -- 64
2019-06-11 00:00:00 9.7 20 Oeste 35 Oeste 0 -- -- 63
2019-06-10 23:00:00 10.8 18 Oeste 32 Oeste 0 -- -- 59
2019-06-10 22:00:00 12.6 16 Oeste 27 Oeste 0 -- -- 57
2019-06-10 21:00:00 14.3 9 Noroeste 21 Noroeste 0 -- -- 54
2019-06-10 20:00:00 16 12 Noroeste 23 Norte 0 -- -- 49
2019-06-10 19:00:00 16 7 Norte 20 Noroeste 0 -- -- 47
2019-06-10 18:00:00 17.5 5 Nordeste 21 Oeste 0 -- -- 57
2019-06-10 17:00:00 17.8 11 Noroeste 32 Noroeste 0 -- -- 44
2019-06-10 16:00:00 19.5 13 Noroeste 29 Noroeste 0 -- -- 44
2019-06-10 15:00:00 19.1 16 Noroeste 30 Oeste 0 -- -- 46
2019-06-10 14:00:00 18.5 14 Noroeste 34 Noroeste 0 -- -- 51
2019-06-10 13:00:00 17.3 15 Noroeste 32 Noroeste 0 -- -- 55
2019-06-10 12:00:00 15.5 18 Oeste 39 Oeste 0 -- -- 60
2019-06-10 11:00:00 13.4 23 Oeste 37 Oeste 0 -- -- 65
2019-06-10 10:00:00 11.2 27 Oeste 50 Oeste 0 -- -- 74
2019-06-10 09:00:00 9.3 31 Oeste 55 Noroeste 0 -- -- 78
2019-06-10 08:00:00 8.5 30 Oeste 55 Oeste 0 -- -- 81
2019-06-10 07:00:00 7.8 31 Oeste 53 Oeste 0 -- -- 85
2019-06-10 06:00:00 8 31 Oeste 54 Oeste 0 -- -- 85
2019-06-10 05:00:00 8.5 33 Oeste 51 Oeste 0 -- -- 83
2019-06-10 04:00:00 9.5 32 Oeste 55 Oeste 0 -- -- 80
2019-06-10 03:00:00 10.5 28 Oeste 47 Oeste 0 -- -- 77
2019-06-10 02:00:00 11.4 26 Oeste 43 Oeste 0 -- -- 73
2019-06-10 01:00:00 12.6 23 Oeste 34 Oeste 0 -- -- 68
2019-06-10 00:00:00 14 8 Oeste 27 Oeste 0 -- -- 51
2019-06-09 23:00:00 14.6 3 Este 8 Este 0 -- -- 48
2019-06-09 22:00:00 14.2 2 Este 5 Sudeste 0 -- -- 48
2019-06-09 21:00:00 15.2 0 Calma 5 Sudeste 0 -- -- 44
2019-06-09 20:00:00 16 4 Este 14 Este 0 -- -- 40
2019-06-09 19:00:00 17.2 8 Este 22 Este 0 -- -- 38
2019-06-09 18:00:00 18.6 3 Sudeste 20 Sudeste 0 -- -- 36
2019-06-09 17:00:00 18.5 11 Este 24 Este 0 -- -- 33
2019-06-09 16:00:00 20.4 11 Este 18 Sudeste 0 -- -- 34
2019-06-09 15:00:00 18.8 10 Este 19 Este 0 -- -- 36
2019-06-09 14:00:00 17.6 12 Este 19 Este 0 -- -- 36
2019-06-09 13:00:00 16.6 4 Este 13 Este 0 -- -- 42
2019-06-09 12:00:00 16.1 4 Sudeste 16 Este 0 -- -- 40
2019-06-09 11:00:00 15.9 5 Este 19 Este 0 -- -- 38
2019-06-09 10:00:00 15.6 6 Este 20 Este 0 -- -- 39
2019-06-09 09:00:00 14.3 8 Este 18 Este 0 -- -- 43
2019-06-09 08:00:00 12.6 8 Este 22 Sudeste 0 -- -- 42
2019-06-09 07:00:00 11.5 5 Este 13 Este 0 -- -- 44
2019-06-09 06:00:00 11.1 5 Sudeste 11 Este 0 -- -- 46
2019-06-09 05:00:00 11.5 6 Sudeste 17 Este 0 -- -- 45
2019-06-09 04:00:00 11.6 9 Este 14 Este 0 -- -- 44
2019-06-09 03:00:00 10.3 4 Este 12 Este 0 -- -- 53
2019-06-09 02:00:00 10.9 9 Este 17 Este 0 -- -- 49
2019-06-09 01:00:00 10.9 10 Este 17 Este 0 -- -- 51
2019-06-09 00:00:00 10 6 Este 12 Este 0 -- -- 51
2019-06-08 23:00:00 9.4 5 Este 12 Este 0 -- -- 57
2019-06-08 22:00:00 10.1 8 Este 19 Este 0 -- -- 57
2019-06-08 21:00:00 10.7 10 Este 27 Este 0 -- -- 58
2019-06-08 20:00:00 11.6 14 Este 30 Este 0 -- -- 58
2019-06-08 19:00:00 12.6 15 Este 35 Este 0 -- -- 55
2019-06-08 18:00:00 13.5 16 Este 37 Este -- -- -- 53
2019-06-08 17:00:00 14.2 20 Este 43 Este 0 -- -- 58
2019-06-08 16:00:00 14.8 23 Este 44 Este 0 -- -- 58
2019-06-08 15:00:00 15 23 Este 46 Este 0 -- -- 58
2019-06-08 14:00:00 15.7 21 Este 41 Este 0 -- -- 56
2019-06-08 13:00:00 15.3 21 Este 38 Este 0 -- -- 55
2019-06-08 12:00:00 15.1 18 Este 33 Este 0 -- -- 55
2019-06-08 11:00:00 14.3 16 Este 31 Este 0 -- -- 60
2019-06-08 10:00:00 13.3 14 Este 26 Este 0 -- -- 66
2019-06-08 09:00:00 11.4 13 Este 29 Este 0 -- -- 70
2019-06-08 08:00:00 9.5 12 Este 20 Este 0 -- -- 81
2019-06-08 07:00:00 8.8 8 Este 17 Este 0 -- -- 86
2019-06-08 06:00:00 9.3 8 Este 19 Este 0 -- -- 89
2019-06-08 05:00:00 9.2 7 Este 19 Nordeste 0 -- -- 85
2019-06-08 04:00:00 9.8 8 Nordeste 17 Nordeste 0 -- -- 70
2019-06-08 03:00:00 10.1 3 Norte 18 Norte 0 -- -- 46
2019-06-08 02:00:00 10 8 Noroeste 13 Noroeste 0 -- -- 44
2019-06-08 01:00:00 10.4 6 Noroeste 15 Noroeste 0 -- -- 42
2019-06-08 00:00:00 10.7 9 Oeste 19 Oeste 0 -- -- 42
2019-06-07 23:00:00 10.7 11 Oeste 21 Oeste 0 -- -- 43
2019-06-07 22:00:00 11.9 15 Noroeste 29 Oeste 0 -- -- 40
2019-06-07 21:00:00 13.1 13 Noroeste 24 Noroeste 0 -- -- 37
2019-06-07 20:00:00 14.3 11 Noroeste 29 Noroeste 0 -- -- 37
2019-06-07 19:00:00 16.2 11 Noroeste 29 Oeste 0 -- -- 37
2019-06-07 18:00:00 16.1 9 Noroeste 19 Noroeste 0 -- -- 40
2019-06-07 17:00:00 15.7 9 Norte 21 Noroeste 0 -- -- 45
2019-06-07 16:00:00 15.2 5 Norte 17 Nordeste 0 -- -- 53
2019-06-07 15:00:00 16.6 6 Oeste 23 Noroeste 0 -- -- 52
2019-06-07 14:00:00 16.7 9 Oeste 25 Noroeste 0 -- -- 54
2019-06-07 13:00:00 16.8 15 Noroeste 33 Oeste 0 -- -- 52
2019-06-07 12:00:00 15.7 18 Noroeste 33 Noroeste 0 -- -- 58
2019-06-07 11:00:00 15.6 15 Noroeste 32 Oeste 0 -- -- 59
2019-06-07 10:00:00 16.4 14 Oeste 28 Oeste 0 -- -- 53
2019-06-07 09:00:00 13.9 8 Sudoeste 19 Sudoeste 0 -- -- 60
2019-06-07 08:00:00 11.2 3 Norte 8 Noroeste 0 -- -- 79
2019-06-07 07:00:00 8.6 4 Oeste 10 Sudoeste 0 -- -- 89
2019-06-07 06:00:00 8.4 4 Sur 9 Sudeste 0 -- -- 91
2019-06-07 05:00:00 8.5 4 Sudeste 9 Sudeste 0 -- -- 94
2019-06-07 04:00:00 8.4 3 Sudeste 8 Sudeste 0 -- -- 91
2019-06-07 03:00:00 10 3 Sudeste 18 Este 0 -- -- 91
2019-06-07 02:00:00 10.5 11 Este 27 Este 0 -- -- 94
2019-06-07 01:00:00 10.7 15 Este 31 Este 0 -- -- 94
2019-06-07 00:00:00 10.7 12 Sudeste 27 Este 0 -- -- 93
2019-06-06 23:00:00 10.5 12 Sudeste 23 Sudeste 0 -- -- 94
2019-06-06 22:00:00 10.5 13 Este 28 Nordeste 0 -- -- 93
2019-06-06 21:00:00 11.1 14 Este 35 Este 0 -- -- 91
2019-06-06 20:00:00 12.1 13 Este 34 Este 0 -- -- 85
2019-06-06 19:00:00 12.8 17 Sudeste 46 Este 0 -- -- 79
2019-06-06 18:00:00 14.1 20 Este 45 Este 0 -- -- 68
2019-06-06 17:00:00 15.3 17 Sudeste 45 Este 0 -- -- 57
2019-06-06 16:00:00 14 19 Este 44 Este 0 -- -- 60
2019-06-06 15:00:00 13 22 Este 41 Este 0 -- -- 67
2019-06-06 14:00:00 13.8 14 Este 34 Este 0 -- -- 66
2019-06-06 13:00:00 14.3 13 Este 34 Este 0 -- -- 65
2019-06-06 12:00:00 15.3 16 Este 34 Sudeste 0 -- -- 62
2019-06-06 11:00:00 14.6 13 Este 27 Este 0 -- -- 61
2019-06-06 10:00:00 14 9 Este 22 Este 0 -- -- 60
2019-06-06 09:00:00 12.9 8 Sudeste 17 Sudeste 0 -- -- 59
2019-06-06 08:00:00 10.5 9 Sur 24 Sur 0 -- -- 66
2019-06-06 07:00:00 8.9 11 Sur 21 Sudoeste 0 -- -- 77
2019-06-06 06:00:00 7.6 8 Sur 13 Sur 0 -- -- 80
2019-06-06 05:00:00 8 7 Sudoeste 17 Sudoeste 0 -- -- 74
2019-06-06 04:00:00 6.6 6 Oeste 15 Oeste 0 -- -- 81
2019-06-06 03:00:00 6.5 13 Oeste 20 Oeste 0 -- -- 81
2019-06-06 02:00:00 6.8 14 Oeste 27 Noroeste 0 -- -- 78
2019-06-06 01:00:00 7 17 Oeste 32 Noroeste 0 -- -- 78
2019-06-06 00:00:00 7.7 18 Oeste 33 Oeste 0 -- -- 75
2019-06-05 23:00:00 8.3 19 Oeste 51 Oeste 0 -- -- 71
2019-06-05 22:00:00 9.1 26 Oeste 63 Oeste 0 -- -- 66
2019-06-05 21:00:00 10.1 36 Noroeste 58 Oeste 0 -- -- 64
2019-06-05 20:00:00 11.4 36 Oeste 75 Noroeste 0 -- -- 57
2019-06-05 19:00:00 11.9 39 Noroeste 69 Noroeste 0 -- -- 53
2019-06-05 18:00:00 11.4 37 Oeste 64 Oeste 0 -- -- 54
2019-06-05 17:00:00 11.8 27 Oeste 58 Noroeste 0 -- -- 59
2019-06-05 16:00:00 12.3 46 Oeste 78 Oeste 0 -- -- 59
2019-06-05 15:00:00 12.7 37 Oeste 73 Oeste 0 -- -- 58
2019-06-05 14:00:00 11.6 36 Noroeste 57 Noroeste 0 -- -- 76
2019-06-05 13:00:00 12.6 21 Noroeste 38 Noroeste 0 -- -- 72
2019-06-05 12:00:00 14.4 8 Noroeste 20 Oeste 0 -- -- 69
2019-06-05 11:00:00 14.7 8 Oeste 18 Noroeste 0 -- -- 69
2019-06-05 10:00:00 12.9 4 Sudoeste 11 Sudeste 0 -- -- 80
2019-06-05 09:00:00 12 3 Sudeste 9 Este 0 -- -- 87
2019-06-05 08:00:00 11 6 Este 13 Este 0 -- -- 92
2019-06-05 07:00:00 10.1 4 Este 10 Este 0 -- -- 90
2019-06-05 06:00:00 10.2 5 Este 11 Este 0 -- -- 73
2019-06-05 05:00:00 10.5 5 Este 12 Este 0 -- -- 57
2019-06-05 04:00:00 10.4 5 Este 10 Este 0 -- -- 61
2019-06-05 03:00:00 10.6 4 Este 9 Este 0 -- -- 60
2019-06-05 02:00:00 12.4 5 Este 13 Este 0 -- -- 56
2019-06-05 01:00:00 13.1 6 Sudeste 16 Sudeste 0 -- -- 42
2019-06-05 00:00:00 13.8 6 Sudeste 21 Sur 0 -- -- 44
2019-06-04 23:00:00 13.8 8 Sudeste 19 Sudeste 0 -- -- 51
2019-06-04 22:00:00 12.8 4 Sudeste 14 Sudeste 0 -- -- 76
2019-06-04 21:00:00 13.7 4 Sudeste 15 Sudeste 0 -- -- 80
2019-06-04 20:00:00 14.8 8 Este 24 Este 0 -- -- 82
2019-06-04 19:00:00 16.3 11 Este 27 Este 0 -- -- 78
2019-06-04 18:00:00 18.3 15 Este 28 Nordeste 0 -- -- 75
2019-06-04 17:00:00 19.7 14 Este 26 Este 0 -- -- 68
2019-06-04 16:00:00 20.4 14 Este 28 Este 0 -- -- 63
2019-06-04 15:00:00 21 14 Este 26 Este 0 -- -- 62
2019-06-04 14:00:00 20.9 14 Este 31 Este 0 -- -- 60
2019-06-04 13:00:00 20.6 14 Este 22 Este 0 -- -- 55
2019-06-04 12:00:00 20.7 11 Este 18 Este 0 -- -- 54
2019-06-04 11:00:00 20.5 6 Este 13 Este 0 -- -- 44
2019-06-04 10:00:00 20 5 Este 12 Este 0 -- -- 39
2019-06-04 09:00:00 19.4 5 Este 13 Sudeste 0 -- -- 37
2019-06-04 08:00:00 17 5 Sudeste 13 Sudeste 0 -- -- 40
2019-06-04 07:00:00 16.2 4 Sudeste 19 Sudeste 0 -- -- 42
2019-06-04 06:00:00 16 6 Sur 15 Sur 0 -- -- 41
2019-06-04 05:00:00 12.5 0 Calma 8 Nordeste 0 -- -- 43
2019-06-04 04:00:00 13.2 3 Este 6 Sudeste 0 -- -- 42
2019-06-04 03:00:00 13.7 2 Este 6 Este 0 -- -- 39
2019-06-04 02:00:00 15.3 4 Sudeste 26 Sudeste 0 -- -- 34
2019-06-04 01:00:00 16.5 11 Sur 29 Sur 0 -- -- 31
2019-06-04 00:00:00 14.2 5 Sudeste 19 Sudeste 0 -- -- 41
2019-06-03 23:00:00 12.8 4 Sudeste 10 Sudeste 0 -- -- 57
2019-06-03 22:00:00 13.1 4 Sudeste 8 Sudeste 0 -- -- 62
2019-06-03 21:00:00 15.4 4 Sudeste 13 Sudeste 0 -- -- 56
2019-06-03 20:00:00 16.1 9 Este 19 Este 0 -- -- 53
2019-06-03 19:00:00 17 9 Este 20 Este 0 -- -- 52
2019-06-03 18:00:00 16.9 12 Este 22 Oeste -- -- -- 66
2019-06-03 17:00:00 17.8 5 Noroeste 21 Sudeste 0.4 -- -- 75
2019-06-03 16:00:00 21.9 10 Sudeste 25 Este 0 -- -- 54
2019-06-03 15:00:00 21.6 13 Este 26 Este 0 -- -- 53
2019-06-03 14:00:00 21.6 11 Este 25 Este 0 -- -- 53
2019-06-03 13:00:00 21.8 10 Este 24 Este 0 -- -- 46
2019-06-03 12:00:00 21.4 10 Este 23 Este 0 -- -- 38
2019-06-03 11:00:00 21.1 10 Este 21 Este 0 -- -- 35
2019-06-03 10:00:00 20.1 8 Este 17 Sudeste 0 -- -- 32
2019-06-03 09:00:00 18.8 8 Este 17 Este 0 -- -- 33
2019-06-03 08:00:00 14.4 4 Sudeste 10 Este 0 -- -- 48
2019-06-03 07:00:00 12.7 5 Sudeste 17 Sudeste 0 -- -- 46
2019-06-03 06:00:00 11 4 Este 10 Este 0 -- -- 50
2019-06-03 05:00:00 11.6 4 Este 7 Este 0 -- -- 50
2019-06-03 04:00:00 12.5 2 Este 4 Este 0 -- -- 48
2019-06-03 03:00:00 12.3 2 Sudeste 10 Sudeste 0 -- -- 52
2019-06-03 02:00:00 12.8 2 Sudeste 10 Este 0 -- -- 57
2019-06-03 01:00:00 13.6 3 Este 6 Sudeste 0 -- -- 55
2019-06-03 00:00:00 13.8 2 Sudeste 8 Este 0 -- -- 53
2019-06-02 23:00:00 15.4 4 Sudeste 16 Sur 0 -- -- 45
2019-06-02 22:00:00 14.9 5 Sudeste 12 Sur 0 -- -- 49
2019-06-02 21:00:00 15.4 3 Este 12 Este 0 -- -- 51
2019-06-02 20:00:00 17.4 8 Este 18 Este 0 -- -- 42
2019-06-02 19:00:00 18.7 10 Este 26 Este 0 -- -- 39
2019-06-02 18:00:00 20.1 13 Este 28 Este 0 -- -- 39
2019-06-02 17:00:00 21.2 12 Este 28 Este 0 -- -- 44
2019-06-02 16:00:00 21.6 13 Este 26 Este 0 -- -- 46
2019-06-02 15:00:00 21.9 11 Este 30 Este 0 -- -- 45
2019-06-02 14:00:00 21.6 12 Este 26 Este 0 -- -- 46
2019-06-02 13:00:00 21.4 12 Este 23 Sudeste 0 -- -- 38
2019-06-02 12:00:00 20.8 12 Este 19 Este 0 -- -- 40
2019-06-02 11:00:00 20.3 8 Este 16 Este 0 -- -- 42
2019-06-02 10:00:00 20.3 6 Este 10 Sudeste 0 -- -- 41
2019-06-02 09:00:00 19.2 4 Este 13 Este 0 -- -- 41
2019-06-02 08:00:00 17.1 3 Sur 12 Sur 0 -- -- 48
2019-06-02 07:00:00 14.9 3 Sur 15 Sudoeste 0 -- -- 52
2019-06-02 06:00:00 14.4 7 Sur 15 Sur 0 -- -- 54
2019-06-02 05:00:00 13.1 3 Sudeste 8 Sudeste 0 -- -- 48
2019-06-02 04:00:00 13.9 5 Sur 11 Sur 0 -- -- 40
2019-06-02 03:00:00 13.3 4 Sudeste 11 Sudeste 0 -- -- 44
2019-06-02 02:00:00 12 3 Sur 9 Sur 0 -- -- 49
2019-06-02 01:00:00 10.8 0 Calma 6 Este 0 -- -- 61
2019-06-02 00:00:00 11.3 3 Este 8 Sudeste 0 -- -- 58
2019-06-01 23:00:00 12 0 Calma 6 Sudeste 0 -- -- 58
2019-06-01 22:00:00 12.3 2 Sudeste 6 Sudeste 0 -- -- 59
2019-06-01 21:00:00 14.5 3 Sudeste 14 Este 0 -- -- 56
2019-06-01 20:00:00 16.2 7 Este 28 Este 0 -- -- 49
2019-06-01 19:00:00 17.5 14 Este 31 Este 0 -- -- 46
2019-06-01 18:00:00 18.8 13 Este 29 Nordeste 0 -- -- 46
2019-06-01 17:00:00 19.5 14 Este 27 Este 0 -- -- 46
2019-06-01 16:00:00 20 14 Este 33 Sudeste 0 -- -- 46
2019-06-01 15:00:00 20.3 13 Este 30 Este 0 -- -- 49
2019-06-01 14:00:00 20.4 15 Este 32 Este 0 -- -- 49
2019-06-01 13:00:00 20 12 Este 25 Este 0 -- -- 50
2019-06-01 12:00:00 20.3 9 Este 22 Este 0 -- -- 47
2019-06-01 11:00:00 19.5 10 Este 21 Este 0 -- -- 46
2019-06-01 10:00:00 19.3 9 Este 15 Sudeste 0 -- -- 43
2019-06-01 09:00:00 18.3 4 Este 15 Sudeste 0 -- -- 40
2019-06-01 08:00:00 15.9 4 Sur 10 Sur 0 -- -- 40
2019-06-01 07:00:00 13.3 7 Sur 14 Sudeste 0 -- -- 43
2019-06-01 06:00:00 12.3 4 Sur 10 Sur 0 -- -- 52
2019-06-01 05:00:00 11.7 3 Sudeste 13 Sudeste 0 -- -- 58
2019-06-01 04:00:00 11.9 4 Sudeste 13 Este 0 -- -- 63
2019-06-01 03:00:00 11 3 Sudeste 11 Sudeste 0 -- -- 68
2019-06-01 02:00:00 10.5 3 Sudeste 10 Sudeste 0 -- -- 70
2019-06-01 01:00:00 10.8 3 Sudeste 14 Este 0 -- -- 69
2019-06-01 00:00:00 11.1 2 Sudeste 13 Sudeste 0 -- -- 67
2019-05-31 23:00:00 11.8 3 Sudeste 10 Este 0 -- -- 70
2019-05-31 22:00:00 11.3 0 Calma 8 Este 0 -- -- 73
2019-05-31 21:00:00 13.2 3 Este 13 Este 0 -- -- 66
2019-05-31 20:00:00 14.6 6 Este 22 Este 0 -- -- 62
2019-05-31 19:00:00 15.7 11 Este 26 Este 0 -- -- 59
2019-05-31 18:00:00 16.8 17 Este 31 Este 0 -- -- 58
2019-05-31 17:00:00 18 13 Este 34 Este 0 -- -- 55
2019-05-31 16:00:00 18.2 15 Este 30 Este 0 -- -- 57
2019-05-31 15:00:00 18.8 15 Este 28 Este 0 -- -- 54
2019-05-31 14:00:00 19 14 Este 33 Este 0 -- -- 56
2019-05-31 13:00:00 19.1 6 Sudeste 23 Este 0 -- -- 46
2019-05-31 12:00:00 17.5 10 Este 21 Este 0 -- -- 49
2019-05-31 11:00:00 16.6 10 Este 18 Este 0 -- -- 54
2019-05-31 10:00:00 16.4 6 Este 12 Este 0 -- -- 51
2019-05-31 09:00:00 15.3 4 Este 8 Este 0 -- -- 52
2019-05-31 08:00:00 13 2 Sudeste 6 Este 0 -- -- 60
2019-05-31 07:00:00 9.3 3 Oeste 4 Noroeste 0 -- -- 68
2019-05-31 06:00:00 9.7 0 Calma 6 Sur 0 -- -- 66
2019-05-31 05:00:00 9.1 5 Sur 7 Sudoeste 0 -- -- 70
2019-05-31 04:00:00 10.2 3 Sur 14 Sudeste 0 -- -- 66
2019-05-31 03:00:00 10 6 Sudeste 15 Sudeste 0 -- -- 67
2019-05-31 02:00:00 9.4 4 Sudeste 10 Sudeste 0 -- -- 72
2019-05-31 01:00:00 10.2 3 Este 7 Este 0 -- -- 74
2019-05-31 00:00:00 12 3 Sudeste 8 Sudeste 0 -- -- 68
2019-05-30 23:00:00 12 4 Sudeste 6 Sudeste 0 -- -- 68
2019-05-30 22:00:00 11.1 3 Sudoeste 6 Sudeste 0 -- -- 71
2019-05-30 21:00:00 13.2 0 Calma 8 Este 0 -- -- 62
2019-05-30 20:00:00 14.7 3 Sudeste 12 Este 0 -- -- 60
2019-05-30 19:00:00 16.1 7 Este 18 Este 0 -- -- 55
2019-05-30 18:00:00 17.8 8 Sudeste 20 Este 0 -- -- 53
2019-05-30 17:00:00 17.9 9 Este 24 Este 0 -- -- 55
2019-05-30 16:00:00 18.1 11 Este 24 Este 0 -- -- 57
2019-05-30 15:00:00 18.6 9 Este 23 Este 0 -- -- 56
2019-05-30 14:00:00 18.3 8 Este 19 Este 0 -- -- 54
2019-05-30 13:00:00 17.9 4 Sudeste 17 Oeste 0 -- -- 52
2019-05-30 12:00:00 16.8 9 Oeste 22 Oeste 0 -- -- 53
2019-05-30 11:00:00 14.9 7 Oeste 14 Sudoeste 0 -- -- 56
2019-05-30 10:00:00 13.7 4 Noroeste 25 Noroeste 0 -- -- 56
2019-05-30 09:00:00 11.5 12 Oeste 28 Oeste 0 -- -- 65
2019-05-30 08:00:00 8.9 18 Oeste 30 Oeste 0 -- -- 70
2019-05-30 07:00:00 6.8 20 Oeste 33 Oeste 0 -- -- 77
2019-05-30 06:00:00 6.6 23 Oeste 36 Oeste 0 -- -- 79
2019-05-30 05:00:00 6.2 17 Oeste 25 Oeste 0 -- -- 80
2019-05-30 04:00:00 6.7 17 Oeste 28 Oeste 0 -- -- 79
2019-05-30 03:00:00 7.1 21 Oeste 33 Oeste 0 -- -- 79
2019-05-30 02:00:00 7.7 20 Oeste 35 Oeste 0 -- -- 77
2019-05-30 01:00:00 8.1 24 Oeste 35 Oeste 0 -- -- 74
2019-05-30 00:00:00 8.8 23 Oeste 44 Oeste 0 -- -- 70
2019-05-29 23:00:00 9.4 26 Oeste 46 Noroeste 0 -- -- 68
2019-05-29 22:00:00 10.2 27 Oeste 51 Oeste 0 -- -- 63
2019-05-29 21:00:00 11.2 30 Oeste 56 Oeste 0 -- -- 57
2019-05-29 20:00:00 12.5 33 Oeste 59 Oeste 0 -- -- 50
2019-05-29 19:00:00 13.7 23 Noroeste 49 Noroeste 0 -- -- 47
2019-05-29 18:00:00 14.6 24 Noroeste 54 Noroeste 0 -- -- 45
2019-05-29 17:00:00 14.9 23 Noroeste 50 Oeste 0 -- -- 45
2019-05-29 16:00:00 14.5 26 Noroeste 50 Noroeste 0 -- -- 47
2019-05-29 15:00:00 13.8 25 Noroeste 51 Noroeste 0 -- -- 53
2019-05-29 14:00:00 13.1 24 Oeste 49 Noroeste 0 -- -- 55
2019-05-29 13:00:00 11.8 23 Oeste 46 Oeste 0 -- -- 57
2019-05-29 12:00:00 11.6 27 Noroeste 56 Noroeste 0 -- -- 60
2019-05-29 11:00:00 9.6 29 Oeste 61 Oeste 0 -- -- 66
2019-05-29 10:00:00 8.6 23 Noroeste 53 Oeste 0 -- -- 70
2019-05-29 09:00:00 6.2 30 Oeste 57 Oeste 0 -- -- 75
2019-05-29 08:00:00 4.8 27 Oeste 66 Oeste 0 -- -- 79
2019-05-29 07:00:00 4.4 35 Oeste 92 Oeste 0 -- -- 83
2019-05-29 06:00:00 4.5 46 Oeste 69 Oeste 0 -- -- 82
2019-05-29 05:00:00 4.7 27 Oeste 71 Oeste 0 -- -- 79
2019-05-29 04:00:00 4.8 37 Oeste 80 Oeste 0 -- -- 77
2019-05-29 03:00:00 4.9 35 Noroeste 78 Oeste 0 -- -- 74
2019-05-29 02:00:00 5.4 29 Oeste 69 Oeste 0 -- -- 74
2019-05-29 01:00:00 5.7 36 Oeste 73 Oeste 0 -- -- 73
2019-05-29 00:00:00 6.2 31 Oeste 83 Oeste 0 -- -- 68
2019-05-28 23:00:00 6.7 42 Oeste 81 Noroeste 0 -- -- 65
2019-05-28 22:00:00 7.6 42 Oeste 76 Oeste 0 -- -- 71
2019-05-28 21:00:00 8.6 29 Oeste 63 Oeste 0 -- -- 65
2019-05-28 20:00:00 10.2 28 Oeste 73 Noroeste 0 -- -- 62
2019-05-28 19:00:00 11.9 35 Noroeste 72 Oeste 0 -- -- 55
2019-05-28 18:00:00 13 37 Noroeste 63 Noroeste 0 -- -- 50
2019-05-28 17:00:00 13.6 33 Noroeste 67 Noroeste 0 -- -- 52
2019-05-28 16:00:00 14.7 32 Noroeste 69 Noroeste 0 -- -- 50
2019-05-28 15:00:00 14.6 31 Noroeste 71 Oeste 0 -- -- 53
2019-05-28 14:00:00 12.8 49 Noroeste 82 Noroeste 0 -- -- 52
2019-05-28 13:00:00 11.8 47 Oeste 86 Oeste 0 -- -- 53
2019-05-28 12:00:00 10.3 46 Oeste 85 Oeste 0 -- -- 60
2019-05-28 11:00:00 9.4 45 Noroeste 71 Oeste 0 -- -- 62
2019-05-28 10:00:00 7.7 49 Oeste 78 Oeste 0 -- -- 67
2019-05-28 09:00:00 5.9 52 Oeste 79 Oeste 0 -- -- 76
2019-05-28 08:00:00 5.1 43 Oeste 81 Oeste 0 -- -- 78
2019-05-28 07:00:00 4.7 45 Oeste 82 Oeste 0 -- -- 80
2019-05-28 06:00:00 5.1 41 Oeste 77 Oeste 0 -- -- 79
2019-05-28 05:00:00 5.6 38 Oeste 67 Oeste 0 -- -- 75
2019-05-28 04:00:00 6.2 40 Noroeste 74 Oeste 0 -- -- 75
2019-05-28 03:00:00 6.8 39 Oeste 66 Oeste 0 -- -- 78
2019-05-28 02:00:00 8 28 Oeste 65 Noroeste 0 -- -- 79
2019-05-28 01:00:00 8.9 37 Noroeste 70 Oeste 0 -- -- 71
2019-05-28 00:00:00 9.9 37 Oeste 66 Oeste 0 -- -- 77